map of WVI home
WVI - Airport
Location
City:  Watsonville, California, United States
Name:Watsonville Municipal Airport
ICAO:KWVI
IATA:WVI
FAA LID:WVI

Details
Type:Airport (Airfield)
Use:Public/Civil
Latitude:3656'09"N (36.935722)
Longitude:12147'23"W (-121.789638)
Datum:WGS 1984
Elevation:163 ft (50 m)
Variation:13.23E (WMM2015 magnetic declination)
-0.09 annual change
Runways:2
Longest:4501 × 149 ft (1372 × 45.5 m), paved

Time
Time Zone:UTC-8 (DST-7)
Local Time:

Weather
METAR:KWVI 130853Z AUTO 26003KT 10SM CLR 06/01 A3017 RMK AO2 SLP215 T00610006 50002

Related Locations
Nearby:
Farthest:FTU: 11380 mi / 18315 km
Tolagnaro [Maurillac Airport (Fort Dauphin Airport)], MG

Find:

   beyond  
but within

Other Information
Maps:
NOTAMs:
Links:
Sources:

  
flag of United States
flag of California
  

Airport Diagram

Airport diagram for WVI

Airport diagram PDF

Sectional Chart

Flight Planning
at skyvector.com

Satellite Image

Google Maps Satellite view

 

Copyright © 2004-2017 Karl L. Swartz. All rights reserved.
The Great Circle Mapper name and logo are trademarks of the Great Circle Mapper.
All other trademarks mentioned herein belong to their respective owners.
Please see credits for attibutions and further copyright information.

  Follow gcmap on Facebook Follow gcmap on Twitter Follow gcmap on Google+ GCmap on LinkedIn

hCard Microformat

Geo Microformat